Dove Creek, Colorado
Current Conditions -  °F | °C
As of 11:15 AM on Thursday 23 Oct 2014 (Local Time) from KBDG Reporting Station
Clear Clear  
Wind Chill: 60°   Ceiling: Unl
Heat Index: 60°   Visibility: 10mi
Dew Point: 36°   Wind: 6mph
Humidity: 40%   Direction: 150°SSE
Pressure: 30.39"   Gusts: NA
Location:  37.77°N, 108.91°W
Report Text: KBDG 231715Z AUTO 15005KT 10SM CLR 16/02 A3039 RMK AO1 T01550020
Loading
Personal Weather Stations






























Interactive Weather Map
Tropical Storm Tracking
New forecast layout! Learn more

10-Day Weather Forecast

Advertisements
Track Severe Weather on mobile